sensor_id;sensor_type;location;lat;lon;timestamp;pressure;altitude;pressure_sealevel;temperature;humidity
62980;BME280;49075;53.988;27.678;2023-07-22T00:00:19;983.4;;;13.4;58.7
62980;BME280;49075;53.988;27.678;2023-07-22T00:05:05;983.4;;;13.3;58.6
62980;BME280;49075;53.988;27.678;2023-07-22T00:10:05;983.5;;;13.3;59
62980;BME280;49075;53.988;27.678;2023-07-22T00:15:05;983.5;;;13.2;59
62980;BME280;49075;53.988;27.678;2023-07-22T00:20:21;983.5;;;13.1;59.4
62980;BME280;49075;53.988;27.678;2023-07-22T00:25:21;983.5;;;13.1;59.3
62980;BME280;49075;53.988;27.678;2023-07-22T00:30:05;983.5;;;13.1;59.5
62980;BME280;49075;53.988;27.678;2023-07-22T00:35:19;983.4;;;13;59.5
62980;BME280;49075;53.988;27.678;2023-07-22T00:40:25;983.5;;;12.9;60
62980;BME280;49075;53.988;27.678;2023-07-22T00:45:05;983.6;;;12.9;59.8
62980;BME280;49075;53.988;27.678;2023-07-22T00:50:39;983.6;;;12.9;60.1
62980;BME280;49075;53.988;27.678;2023-07-22T00:55:05;983.5;;;12.9;60
62980;BME280;49075;53.988;27.678;2023-07-22T01:00:05;983.5;;;12.8;60.2
62980;BME280;49075;53.988;27.678;2023-07-22T01:05:21;983.5;;;12.9;60
62980;BME280;49075;53.988;27.678;2023-07-22T01:10:17;983.5;;;12.8;60.6
62980;BME280;49075;53.988;27.678;2023-07-22T01:15:25;983.5;;;12.6;60.5
62980;BME280;49075;53.988;27.678;2023-07-22T01:20:05;983.5;;;12.5;61
62980;BME280;49075;53.988;27.678;2023-07-22T01:25:21;983.4;;;12.4;60.9
62980;BME280;49075;53.988;27.678;2023-07-22T01:30:05;983.4;;;12.4;61.4
62980;BME280;49075;53.988;27.678;2023-07-22T01:35:19;983.4;;;12.4;61.1
62980;BME280;49075;53.988;27.678;2023-07-22T01:40:05;983.3;;;12.4;61.4
62980;BME280;49075;53.988;27.678;2023-07-22T01:45:41;983.3;;;12.3;61.2
62980;BME280;49075;53.988;27.678;2023-07-22T01:50:11;983.3;;;12.3;61.6
62980;BME280;49075;53.988;27.678;2023-07-22T01:55:31;983.4;;;12.2;61.6
62980;BME280;49075;53.988;27.678;2023-07-22T02:00:05;983.4;;;12.1;62.1
62980;BME280;49075;53.988;27.678;2023-07-22T02:05:33;983.3;;;12;61.9
62980;BME280;49075;53.988;27.678;2023-07-22T02:10:25;983.3;;;12.1;62.2
62980;BME280;49075;53.988;27.678;2023-07-22T02:15:49;983.3;;;12.1;62
62980;BME280;49075;53.988;27.678;2023-07-22T02:20:05;983.3;;;12;62.5
62980;BME280;49075;53.988;27.678;2023-07-22T02:25:05;983.2;;;11.9;62.4
62980;BME280;49075;53.988;27.678;2023-07-22T02:30:17;983.2;;;11.8;62.9
62980;BME280;49075;53.988;27.678;2023-07-22T02:35:05;983.3;;;11.9;62.6
62980;BME280;49075;53.988;27.678;2023-07-22T02:40:05;983.2;;;12;62.8
62980;BME280;49075;53.988;27.678;2023-07-22T02:45:05;983.1;;;12;62.3
62980;BME280;49075;53.988;27.678;2023-07-22T02:50:11;983.1;;;12;62.7
62980;BME280;49075;53.988;27.678;2023-07-22T02:55:06;983.1;;;12.1;62.3
62980;BME280;49075;53.988;27.678;2023-07-22T03:00:05;983.1;;;12;62.6
62980;BME280;49075;53.988;27.678;2023-07-22T03:05:17;983.2;;;12;62.4
62980;BME280;49075;53.988;27.678;2023-07-22T03:10:35;983.2;;;12.1;62.4
62980;BME280;49075;53.988;27.678;2023-07-22T03:15:19;983.2;;;12.4;61.7
62980;BME280;49075;53.988;27.678;2023-07-22T03:20:39;983.2;;;12.4;62
62980;BME280;49075;53.988;27.678;2023-07-22T03:25:05;983.2;;;12.5;61.8
62980;BME280;49075;53.988;27.678;2023-07-22T03:30:12;983.3;;;12.6;61.8
62980;BME280;49075;53.988;27.678;2023-07-22T03:35:05;983.2;;;12.9;61.3
62980;BME280;49075;53.988;27.678;2023-07-22T03:40:21;983.2;;;13.2;61.2
62980;BME280;49075;53.988;27.678;2023-07-22T03:45:05;983.1;;;13.5;60
62980;BME280;49075;53.988;27.678;2023-07-22T03:50:57;983.1;;;13.7;59.4
62980;BME280;49075;53.988;27.678;2023-07-22T03:55:05;983.1;;;14;58.9
62980;BME280;49075;53.988;27.678;2023-07-22T04:00:06;983.1;;;14;58.9
62980;BME280;49075;53.988;27.678;2023-07-22T04:05:05;983.1;;;14.3;58.6
62980;BME280;49075;53.988;27.678;2023-07-22T04:10:05;983.1;;;14.5;58.1
62980;BME280;49075;53.988;27.678;2023-07-22T04:15:05;983.1;;;14.6;58.2
62980;BME280;49075;53.988;27.678;2023-07-22T04:20:05;983.1;;;14.7;58.1
62980;BME280;49075;53.988;27.678;2023-07-22T04:25:19;983.1;;;14.7;58.3
62980;BME280;49075;53.988;27.678;2023-07-22T04:30:05;983;;;14.7;58.1
62980;BME280;49075;53.988;27.678;2023-07-22T04:35:17;983;;;14.9;57.7
62980;BME280;49075;53.988;27.678;2023-07-22T04:40:42;983;;;15.3;56.9
62980;BME280;49075;53.988;27.678;2023-07-22T04:45:31;983;;;15.7;56.2
62980;BME280;49075;53.988;27.678;2023-07-22T04:50:06;983;;;16.2;55.3
62980;BME280;49075;53.988;27.678;2023-07-22T04:55:19;983;;;16.6;54.4
62980;BME280;49075;53.988;27.678;2023-07-22T05:00:05;983.1;;;17;53.6
62980;BME280;49075;53.988;27.678;2023-07-22T05:05:05;983;;;17.2;52.5
62980;BME280;49075;53.988;27.678;2023-07-22T05:10:06;983;;;17.3;52.3
62980;BME280;49075;53.988;27.678;2023-07-22T05:15:05;983.1;;;17.6;51.5
62980;BME280;49075;53.988;27.678;2023-07-22T05:20:06;983.1;;;17.9;50.9
62980;BME280;49075;53.988;27.678;2023-07-22T05:25:05;983.1;;;17.6;49.5
62980;BME280;49075;53.988;27.678;2023-07-22T05:30:31;983;;;17.6;49.7
62980;BME280;49075;53.988;27.678;2023-07-22T05:35:05;982.9;;;17.7;48.9
62980;BME280;49075;53.988;27.678;2023-07-22T05:40:05;982.8;;;18.3;48.4
62980;BME280;49075;53.988;27.678;2023-07-22T05:45:06;982.9;;;18.7;47.2
62980;BME280;49075;53.988;27.678;2023-07-22T05:50:39;982.8;;;19.1;46.3
62980;BME280;49075;53.988;27.678;2023-07-22T05:55:25;982.8;;;19;45.3
62980;BME280;49075;53.988;27.678;2023-07-22T06:00:05;982.8;;;19.2;45.2
62980;BME280;49075;53.988;27.678;2023-07-22T06:05:19;982.7;;;19.6;44.3
62980;BME280;49075;53.988;27.678;2023-07-22T06:10:17;982.6;;;19.6;43.7
62980;BME280;49075;53.988;27.678;2023-07-22T06:15:19;982.7;;;19.6;43.7
62980;BME280;49075;53.988;27.678;2023-07-22T06:20:05;982.7;;;19.6;43
62980;BME280;49075;53.988;27.678;2023-07-22T06:25:33;982.7;;;19.5;43
62980;BME280;49075;53.988;27.678;2023-07-22T06:30:21;982.7;;;19.5;43.1
62980;BME280;49075;53.988;27.678;2023-07-22T06:35:11;982.6;;;19.9;42.1
62980;BME280;49075;53.988;27.678;2023-07-22T06:40:06;982.6;;;20.3;41.5
62980;BME280;49075;53.988;27.678;2023-07-22T06:45:06;982.6;;;20.6;40
62980;BME280;49075;53.988;27.678;2023-07-22T06:50:05;982.6;;;21.1;39.5
62980;BME280;49075;53.988;27.678;2023-07-22T06:55:17;982.5;;;21.6;37.8
62980;BME280;49075;53.988;27.678;2023-07-22T07:00:05;982.5;;;21.7;37.9
62980;BME280;49075;53.988;27.678;2023-07-22T07:05:05;982.6;;;21.3;38
62980;BME280;49075;53.988;27.678;2023-07-22T07:10:29;982.6;;;21.5;37.9
62980;BME280;49075;53.988;27.678;2023-07-22T07:15:13;982.6;;;21.2;38.1
62980;BME280;49075;53.988;27.678;2023-07-22T07:20:07;982.6;;;20.8;38.4
62980;BME280;49075;53.988;27.678;2023-07-22T07:25:49;982.6;;;20.2;39.5
62980;BME280;49075;53.988;27.678;2023-07-22T07:30:19;982.6;;;20.5;39.7
62980;BME280;49075;53.988;27.678;2023-07-22T07:35:35;982.6;;;20.6;39.3
62980;BME280;49075;53.988;27.678;2023-07-22T07:40:19;982.7;;;20.3;39.2
62980;BME280;49075;53.988;27.678;2023-07-22T07:45:19;982.7;;;20.4;39.8
62980;BME280;49075;53.988;27.678;2023-07-22T07:50:25;982.6;;;20.3;40.1
62980;BME280;49075;53.988;27.678;2023-07-22T07:55:43;982.7;;;20.2;40.7
62980;BME280;49075;53.988;27.678;2023-07-22T08:00:07;982.7;;;20;41.1
62980;BME280;49075;53.988;27.678;2023-07-22T08:05:35;982.8;;;20.1;41.1
62980;BME280;49075;53.988;27.678;2023-07-22T08:10:29;982.8;;;20.2;41
62980;BME280;49075;53.988;27.678;2023-07-22T08:15:35;982.8;;;20;41.4
62980;BME280;49075;53.988;27.678;2023-07-22T08:20:31;982.8;;;20;41.8
62980;BME280;49075;53.988;27.678;2023-07-22T08:25:13;982.8;;;20.5;41
62980;BME280;49075;53.988;27.678;2023-07-22T08:30:43;982.9;;;20.6;40.1
62980;BME280;49075;53.988;27.678;2023-07-22T08:35:19;982.8;;;20.9;40
62980;BME280;49075;53.988;27.678;2023-07-22T08:40:35;982.8;;;21.2;39.3
62980;BME280;49075;53.988;27.678;2023-07-22T08:45:08;982.8;;;21.2;39.2
62980;BME280;49075;53.988;27.678;2023-07-22T08:50:20;982.8;;;21.2;39.1
62980;BME280;49075;53.988;27.678;2023-07-22T08:55:14;982.8;;;21.5;39.3
62980;BME280;49075;53.988;27.678;2023-07-22T09:00:07;982.7;;;21.6;39.2
62980;BME280;49075;53.988;27.678;2023-07-22T09:05:07;982.7;;;21.5;39.6
62980;BME280;49075;53.988;27.678;2023-07-22T09:10:19;982.6;;;21.7;39.4
62980;BME280;49075;53.988;27.678;2023-07-22T09:15:23;982.6;;;22;38.6
62980;BME280;49075;53.988;27.678;2023-07-22T09:20:19;982.5;;;22;38.8
62980;BME280;49075;53.988;27.678;2023-07-22T09:25:14;982.6;;;22.1;38.5
62980;BME280;49075;53.988;27.678;2023-07-22T09:30:21;982.5;;;22.1;38.5
62980;BME280;49075;53.988;27.678;2023-07-22T09:35:07;982.6;;;21.8;38.8
62980;BME280;49075;53.988;27.678;2023-07-22T09:40:16;982.6;;;21.5;39.3
62980;BME280;49075;53.988;27.678;2023-07-22T09:45:24;982.6;;;21.4;39.4
62980;BME280;49075;53.988;27.678;2023-07-22T09:50:24;982.5;;;21.6;39.3
62980;BME280;49075;53.988;27.678;2023-07-22T09:55:45;982.5;;;21.7;38.8
62980;BME280;49075;53.988;27.678;2023-07-22T10:00:07;982.5;;;21.4;39.2
62980;BME280;49075;53.988;27.678;2023-07-22T10:05:26;982.4;;;21.5;38.9
62980;BME280;49075;53.988;27.678;2023-07-22T10:10:32;982.4;;;21.6;38.5
62980;BME280;49075;53.988;27.678;2023-07-22T10:15:27;982.4;;;22.1;37.5
62980;BME280;49075;53.988;27.678;2023-07-22T10:20:29;982.3;;;22.7;36.6
62980;BME280;49075;53.988;27.678;2023-07-22T10:25:20;982.2;;;23.5;35.4
62980;BME280;49075;53.988;27.678;2023-07-22T10:30:08;982.2;;;24.3;34.3
62980;BME280;49075;53.988;27.678;2023-07-22T10:35:16;982.1;;;24.1;34.4
62980;BME280;49075;53.988;27.678;2023-07-22T10:40:25;982.1;;;24.1;34.7
62980;BME280;49075;53.988;27.678;2023-07-22T10:45:28;982.1;;;23.7;34.5
62980;BME280;49075;53.988;27.678;2023-07-22T10:50:07;982;;;23.7;34.7
62980;BME280;49075;53.988;27.678;2023-07-22T10:55:14;982;;;23.1;35.5
62980;BME280;49075;53.988;27.678;2023-07-22T11:00:08;981.9;;;24;34.7
62980;BME280;49075;53.988;27.678;2023-07-22T11:05:10;981.9;;;23.9;34.9
62980;BME280;49075;53.988;27.678;2023-07-22T11:10:23;982;;;22.7;36.3
62980;BME280;49075;53.988;27.678;2023-07-22T11:15:07;982;;;22.3;37.1
62980;BME280;49075;53.988;27.678;2023-07-22T11:20:20;982;;;21.5;38.6
62980;BME280;49075;53.988;27.678;2023-07-22T11:25:35;981.9;;;21.1;39.5
62980;BME280;49075;53.988;27.678;2023-07-22T11:30:23;981.9;;;20.9;39.7
62980;BME280;49075;53.988;27.678;2023-07-22T11:35:37;981.8;;;20.6;40.4
62980;BME280;49075;53.988;27.678;2023-07-22T11:40:19;981.8;;;20.6;40.1
62980;BME280;49075;53.988;27.678;2023-07-22T11:45:07;981.7;;;20.3;41
62980;BME280;49075;53.988;27.678;2023-07-22T11:50:07;981.7;;;20.2;41.1
62980;BME280;49075;53.988;27.678;2023-07-22T11:55:34;981.7;;;20;42
62980;BME280;49075;53.988;27.678;2023-07-22T12:00:42;981.7;;;20.2;42
62980;BME280;49075;53.988;27.678;2023-07-22T12:05:35;981.7;;;20.4;42
62980;BME280;49075;53.988;27.678;2023-07-22T12:10:19;981.7;;;20.3;42.5
62980;BME280;49075;53.988;27.678;2023-07-22T12:15:21;981.6;;;20;43.4
62980;BME280;49075;53.988;27.678;2023-07-22T12:20:07;981.7;;;19.9;43.8
62980;BME280;49075;53.988;27.678;2023-07-22T12:25:21;981.7;;;19.6;44.7
62980;BME280;49075;53.988;27.678;2023-07-22T12:30:37;981.7;;;19.6;44.6
62980;BME280;49075;53.988;27.678;2023-07-22T12:35:08;981.7;;;19.2;46
62980;BME280;49075;53.988;27.678;2023-07-22T12:40:35;981.8;;;19;47
62980;BME280;49075;53.988;27.678;2023-07-22T12:45:33;982;;;18.3;54.8
62980;BME280;49075;53.988;27.678;2023-07-22T12:50:13;982.2;;;17.2;60
62980;BME280;49075;53.988;27.678;2023-07-22T12:55:27;982.2;;;16.6;63
62980;BME280;49075;53.988;27.678;2023-07-22T13:00:08;982.3;;;16.2;63
62980;BME280;49075;53.988;27.678;2023-07-22T13:05:37;982.3;;;15.6;67.3
62980;BME280;49075;53.988;27.678;2023-07-22T13:10:24;982.2;;;15.5;66
62980;BME280;49075;53.988;27.678;2023-07-22T13:15:25;982.2;;;15.5;67.6
62980;BME280;49075;53.988;27.678;2023-07-22T13:20:43;982.3;;;15.7;67.1
62980;BME280;49075;53.988;27.678;2023-07-22T13:25:55;982.2;;;15.7;68.3
62980;BME280;49075;53.988;27.678;2023-07-22T13:30:07;982.2;;;15.7;67.4
62980;BME280;49075;53.988;27.678;2023-07-22T13:35:07;982.2;;;15.7;68.8
62980;BME280;49075;53.988;27.678;2023-07-22T13:40:07;982.1;;;15.8;68
62980;BME280;49075;53.988;27.678;2023-07-22T13:45:33;982.1;;;15.8;69.2
62980;BME280;49075;53.988;27.678;2023-07-22T13:50:29;982;;;16.1;67.8
62980;BME280;49075;53.988;27.678;2023-07-22T13:55:19;982;;;16.3;67.7
62980;BME280;49075;53.988;27.678;2023-07-22T14:00:27;981.9;;;16.5;66.8
62980;BME280;49075;53.988;27.678;2023-07-22T14:05:07;981.7;;;16.6;67
62980;BME280;49075;53.988;27.678;2023-07-22T14:10:08;981.6;;;16.9;65.4
62980;BME280;49075;53.988;27.678;2023-07-22T14:15:07;981.5;;;17;64
62980;BME280;49075;53.988;27.678;2023-07-22T14:20:37;981.4;;;17;63.9
62980;BME280;49075;53.988;27.678;2023-07-22T14:25:19;981.5;;;16.9;65.3
62980;BME280;49075;53.988;27.678;2023-07-22T14:30:19;981.5;;;16.7;66.5
62980;BME280;49075;53.988;27.678;2023-07-22T14:35:08;981.5;;;16.4;68.1
62980;BME280;49075;53.988;27.678;2023-07-22T14:40:28;981.5;;;16.4;68.9
62980;BME280;49075;53.988;27.678;2023-07-22T14:45:29;981.4;;;16.3;69
62980;BME280;49075;53.988;27.678;2023-07-22T14:50:35;981.3;;;16.4;69.5
62980;BME280;49075;53.988;27.678;2023-07-22T14:55:07;981.3;;;16.4;69.8
62980;BME280;49075;53.988;27.678;2023-07-22T15:00:13;981.4;;;16.8;69.3
62980;BME280;49075;53.988;27.678;2023-07-22T15:05:37;981.3;;;16.9;69.4
62980;BME280;49075;53.988;27.678;2023-07-22T15:10:07;981.3;;;17.1;69.8
62980;BME280;49075;53.988;27.678;2023-07-22T15:15:37;981.2;;;17.5;68.5
62980;BME280;49075;53.988;27.678;2023-07-22T15:20:07;981.3;;;17.7;68.4
62980;BME280;49075;53.988;27.678;2023-07-22T15:25:13;981.3;;;17.6;68.7
62980;BME280;49075;53.988;27.678;2023-07-22T15:30:19;981.3;;;17.3;70.4
62980;BME280;49075;53.988;27.678;2023-07-22T15:35:39;981.3;;;16.9;71
62980;BME280;49075;53.988;27.678;2023-07-22T15:40:07;981.3;;;16.6;71.6
62980;BME280;49075;53.988;27.678;2023-07-22T15:45:21;981.3;;;16.5;71.8
62980;BME280;49075;53.988;27.678;2023-07-22T15:50:19;981.3;;;16.4;72.5
62980;BME280;49075;53.988;27.678;2023-07-22T15:55:07;981.2;;;16.5;72.1
62980;BME280;49075;53.988;27.678;2023-07-22T16:00:21;981.2;;;16.5;72.6
62980;BME280;49075;53.988;27.678;2023-07-22T16:05:08;981.1;;;16.5;72.5
62980;BME280;49075;53.988;27.678;2023-07-22T16:10:07;981;;;16.5;73.2
62980;BME280;49075;53.988;27.678;2023-07-22T16:15:21;980.9;;;16.5;73
62980;BME280;49075;53.988;27.678;2023-07-22T16:20:33;980.9;;;16.5;73.6
62980;BME280;49075;53.988;27.678;2023-07-22T16:25:23;980.9;;;16.6;72.9
62980;BME280;49075;53.988;27.678;2023-07-22T16:30:45;980.9;;;16.6;73.8
62980;BME280;49075;53.988;27.678;2023-07-22T16:35:19;980.8;;;16.6;73.8
62980;BME280;49075;53.988;27.678;2023-07-22T16:40:27;980.8;;;16.6;74.7
62980;BME280;49075;53.988;27.678;2023-07-22T16:45:08;980.9;;;16.5;74.8
62980;BME280;49075;53.988;27.678;2023-07-22T16:50:37;980.9;;;16.3;76.5
62980;BME280;49075;53.988;27.678;2023-07-22T16:55:29;980.9;;;16.3;76.1
62980;BME280;49075;53.988;27.678;2023-07-22T17:00:23;980.9;;;16.1;77.4
62980;BME280;49075;53.988;27.678;2023-07-22T17:05:08;980.9;;;16.1;76.6
62980;BME280;49075;53.988;27.678;2023-07-22T17:10:19;980.9;;;16;77.5
62980;BME280;49075;53.988;27.678;2023-07-22T17:15:08;980.9;;;15.9;77.1
62980;BME280;49075;53.988;27.678;2023-07-22T17:20:23;980.8;;;15.7;77.5
62980;BME280;49075;53.988;27.678;2023-07-22T17:25:38;980.9;;;15.8;77.3
62980;BME280;49075;53.988;27.678;2023-07-22T17:30:07;980.8;;;15.8;77.1
62980;BME280;49075;53.988;27.678;2023-07-22T17:35:31;981;;;15.8;77.4
62980;BME280;49075;53.988;27.678;2023-07-22T17:40:08;981;;;15.7;77.8
62980;BME280;49075;53.988;27.678;2023-07-22T17:45:33;980.9;;;15.7;77.7
62980;BME280;49075;53.988;27.678;2023-07-22T17:50:47;980.9;;;15.6;77.8
62980;BME280;49075;53.988;27.678;2023-07-22T17:55:08;980.8;;;15.6;78
62980;BME280;49075;53.988;27.678;2023-07-22T18:00:37;980.7;;;15.4;79.3
62980;BME280;49075;53.988;27.678;2023-07-22T18:05:08;980.7;;;15.4;80.2
62980;BME280;49075;53.988;27.678;2023-07-22T18:10:31;980.9;;;15.2;81.3
62980;BME280;49075;53.988;27.678;2023-07-22T18:15:08;980.9;;;15;79.4
62980;BME280;49075;53.988;27.678;2023-07-22T18:20:08;981;;;14.6;77.8
62980;BME280;49075;53.988;27.678;2023-07-22T18:25:08;981;;;14.5;76.3
62980;BME280;49075;53.988;27.678;2023-07-22T18:30:21;981;;;14.5;75.8
62980;BME280;49075;53.988;27.678;2023-07-22T18:35:51;981;;;14.5;75.9
62980;BME280;49075;53.988;27.678;2023-07-22T18:40:37;981;;;14.5;75.8
62980;BME280;49075;53.988;27.678;2023-07-22T18:45:08;981;;;14.5;76.3
62980;BME280;49075;53.988;27.678;2023-07-22T18:50:23;981;;;14.6;76.3
62980;BME280;49075;53.988;27.678;2023-07-22T18:55:15;981;;;14.7;75.5
62980;BME280;49075;53.988;27.678;2023-07-22T19:00:21;980.9;;;14.7;74.8
62980;BME280;49075;53.988;27.678;2023-07-22T19:05:07;981;;;14.6;75.5
62980;BME280;49075;53.988;27.678;2023-07-22T19:11:01;981;;;14.6;75.6
62980;BME280;49075;53.988;27.678;2023-07-22T19:15:19;981;;;14.6;76.8
62980;BME280;49075;53.988;27.678;2023-07-22T19:20:19;981;;;14.6;77
62980;BME280;49075;53.988;27.678;2023-07-22T19:25:19;981.1;;;14.5;78.9
62980;BME280;49075;53.988;27.678;2023-07-22T19:30:08;981.1;;;14.5;78.8
62980;BME280;49075;53.988;27.678;2023-07-22T19:35:19;981.1;;;14.5;79.7
62980;BME280;49075;53.988;27.678;2023-07-22T19:40:19;981.2;;;14.6;79
62980;BME280;49075;53.988;27.678;2023-07-22T19:45:31;981.3;;;14.6;78.4
62980;BME280;49075;53.988;27.678;2023-07-22T19:50:53;981.3;;;14.6;78.4
62980;BME280;49075;53.988;27.678;2023-07-22T19:55:23;981.4;;;14.5;78.6
62980;BME280;49075;53.988;27.678;2023-07-22T20:00:07;981.4;;;14.4;78
62980;BME280;49075;53.988;27.678;2023-07-22T20:05:15;981.4;;;14.2;78.4
62980;BME280;49075;53.988;27.678;2023-07-22T20:10:08;981.4;;;14.1;78.1
62980;BME280;49075;53.988;27.678;2023-07-22T20:15:36;981.5;;;14;78.4
62980;BME280;49075;53.988;27.678;2023-07-22T20:20:31;981.5;;;14;78.4
62980;BME280;49075;53.988;27.678;2023-07-22T20:25:27;981.5;;;13.9;78.5
62980;BME280;49075;53.988;27.678;2023-07-22T20:30:24;981.4;;;13.8;79.1
62980;BME280;49075;53.988;27.678;2023-07-22T20:35:08;981.4;;;13.7;79
62980;BME280;49075;53.988;27.678;2023-07-22T20:40:19;981.4;;;13.6;79.5
62980;BME280;49075;53.988;27.678;2023-07-22T20:45:08;981.4;;;13.6;79.3
62980;BME280;49075;53.988;27.678;2023-07-22T20:50:08;981.4;;;13.5;79.6
62980;BME280;49075;53.988;27.678;2023-07-22T20:55:08;981.5;;;13.5;79.5
62980;BME280;49075;53.988;27.678;2023-07-22T21:00:08;981.5;;;13.5;79.7
62980;BME280;49075;53.988;27.678;2023-07-22T21:05:19;981.5;;;13.5;79.6
62980;BME280;49075;53.988;27.678;2023-07-22T21:10:08;981.6;;;13.6;79.8
62980;BME280;49075;53.988;27.678;2023-07-22T21:15:08;981.7;;;13.7;79.4
62980;BME280;49075;53.988;27.678;2023-07-22T21:20:19;981.7;;;13.7;79.7
62980;BME280;49075;53.988;27.678;2023-07-22T21:25:08;981.7;;;13.7;79.6
62980;BME280;49075;53.988;27.678;2023-07-22T21:30:23;981.7;;;13.6;79.8
62980;BME280;49075;53.988;27.678;2023-07-22T21:35:07;981.7;;;13.6;79.5
62980;BME280;49075;53.988;27.678;2023-07-22T21:40:08;981.8;;;13.5;80
62980;BME280;49075;53.988;27.678;2023-07-22T21:45:23;981.8;;;13.5;79.8
62980;BME280;49075;53.988;27.678;2023-07-22T21:50:08;981.8;;;13.5;80.1
62980;BME280;49075;53.988;27.678;2023-07-22T21:55:08;981.8;;;13.5;80
62980;BME280;49075;53.988;27.678;2023-07-22T22:00:08;981.8;;;13.5;80.2
62980;BME280;49075;53.988;27.678;2023-07-22T22:05:23;982;;;13.5;80.1
62980;BME280;49075;53.988;27.678;2023-07-22T22:10:49;982;;;13.5;80.4
62980;BME280;49075;53.988;27.678;2023-07-22T22:15:19;982;;;13.5;80.2
62980;BME280;49075;53.988;27.678;2023-07-22T22:20:27;982;;;13.4;80.5
62980;BME280;49075;53.988;27.678;2023-07-22T22:25:08;982;;;13.5;80.3
62980;BME280;49075;53.988;27.678;2023-07-22T22:30:35;982;;;13.4;80.7
62980;BME280;49075;53.988;27.678;2023-07-22T22:35:31;982;;;13.4;80.5
62980;BME280;49075;53.988;27.678;2023-07-22T22:40:19;982;;;13.4;80.5
62980;BME280;49075;53.988;27.678;2023-07-22T22:45:08;982.1;;;13.4;80.5
62980;BME280;49075;53.988;27.678;2023-07-22T22:50:15;982.1;;;13.3;80.3
62980;BME280;49075;53.988;27.678;2023-07-22T22:55:08;982;;;13.3;80.1
62980;BME280;49075;53.988;27.678;2023-07-22T23:00:31;982;;;13.3;80.4
62980;BME280;49075;53.988;27.678;2023-07-22T23:05:35;982;;;13.3;80.1
62980;BME280;49075;53.988;27.678;2023-07-22T23:10:08;982;;;13.2;80.4
62980;BME280;49075;53.988;27.678;2023-07-22T23:15:08;982.1;;;13.2;80.1
62980;BME280;49075;53.988;27.678;2023-07-22T23:20:25;982.2;;;13.2;80
62980;BME280;49075;53.988;27.678;2023-07-22T23:25:15;982.2;;;13.1;80.1
62980;BME280;49075;53.988;27.678;2023-07-22T23:35:23;982.3;;;13.1;80
62980;BME280;49075;53.988;27.678;2023-07-22T23:40:23;982.4;;;13.1;79.8
62980;BME280;49075;53.988;27.678;2023-07-22T23:45:08;982.4;;;13;80
62980;BME280;49075;53.988;27.678;2023-07-22T23:50:20;982.5;;;12.9;79.8
62980;BME280;49075;53.988;27.678;2023-07-22T23:55:19;982.4;;;12.8;79.9
